Jenison, Michigan
Current Conditions -  °F | °C
As of 2:53 AM on Friday 24 Oct 2014 (Local Time) from KGRR Reporting Station
Overcast Overcast  
Wind Chill: 50°   Ceiling: 3900
Heat Index: 50°   Visibility: 9mi
Dew Point: 42°   Wind: 6mph
Humidity: 74%   Direction: 190°S
Pressure: 30.06"   Gusts: NA
Location:  42.9°N, 85.78°W
Report Text: KGRR 240653Z AUTO 19005KT 9SM OVC039 10/06 A3006 RMK AO2 SLP181 T01000056
Loading
Personal Weather Stations






























Interactive Weather Map
Tropical Storm Tracking
New forecast layout! Learn more

10-Day Weather Forecast

Advertisements
Track Severe Weather on mobile